sensor_id;sensor_type;location;lat;lon;timestamp;P1;durP1;ratioP1;P2;durP2;ratioP2
33403;SDS011;19751;40.274;18.268;2023-04-24T00:02:12;7.65;;;5.25;;
33403;SDS011;19751;40.274;18.268;2023-04-24T00:04:38;6.75;;;5.10;;
33403;SDS011;19751;40.274;18.268;2023-04-24T00:07:10;6.80;;;5.05;;
33403;SDS011;19751;40.274;18.268;2023-04-24T00:09:36;7.50;;;5.55;;
33403;SDS011;19751;40.274;18.268;2023-04-24T00:12:02;9.93;;;5.43;;
33403;SDS011;19751;40.274;18.268;2023-04-24T00:14:29;10.63;;;5.90;;
33403;SDS011;19751;40.274;18.268;2023-04-24T00:16:55;7.57;;;5.72;;
33403;SDS011;19751;40.274;18.268;2023-04-24T00:19:21;9.20;;;5.88;;
33403;SDS011;19751;40.274;18.268;2023-04-24T00:21:47;5.82;;;4.95;;
33403;SDS011;19751;40.274;18.268;2023-04-24T00:24:15;6.90;;;5.80;;
33403;SDS011;19751;40.274;18.268;2023-04-24T00:26:41;6.35;;;5.38;;
33403;SDS011;19751;40.274;18.268;2023-04-24T00:29:07;6.50;;;4.80;;
33403;SDS011;19751;40.274;18.268;2023-04-24T00:31:32;6.50;;;5.13;;
33403;SDS011;19751;40.274;18.268;2023-04-24T00:34:00;8.93;;;5.80;;
33403;SDS011;19751;40.274;18.268;2023-04-24T00:36:27;8.85;;;5.95;;
33403;SDS011;19751;40.274;18.268;2023-04-24T00:38:53;7.88;;;5.22;;
33403;SDS011;19751;40.274;18.268;2023-04-24T00:41:18;7.25;;;6.10;;
33403;SDS011;19751;40.274;18.268;2023-04-24T00:43:44;9.30;;;5.85;;
33403;SDS011;19751;40.274;18.268;2023-04-24T00:46:10;7.32;;;5.70;;
33403;SDS011;19751;40.274;18.268;2023-04-24T00:48:38;6.40;;;5.32;;
33403;SDS011;19751;40.274;18.268;2023-04-24T00:51:04;8.68;;;6.30;;
33403;SDS011;19751;40.274;18.268;2023-04-24T00:53:30;7.32;;;5.25;;
33403;SDS011;19751;40.274;18.268;2023-04-24T00:55:56;11.00;;;5.88;;
33403;SDS011;19751;40.274;18.268;2023-04-24T00:58:22;7.45;;;5.57;;
33403;SDS011;19751;40.274;18.268;2023-04-24T01:00:48;5.88;;;5.07;;
33403;SDS011;19751;40.274;18.268;2023-04-24T01:03:18;6.00;;;5.18;;
33403;SDS011;19751;40.274;18.268;2023-04-24T01:05:46;7.30;;;5.45;;
33403;SDS011;19751;40.274;18.268;2023-04-24T01:08:12;7.18;;;5.53;;
33403;SDS011;19751;40.274;18.268;2023-04-24T01:10:38;6.45;;;5.03;;
33403;SDS011;19751;40.274;18.268;2023-04-24T01:13:05;5.53;;;4.82;;
33403;SDS011;19751;40.274;18.268;2023-04-24T01:15:33;5.82;;;4.80;;
33403;SDS011;19751;40.274;18.268;2023-04-24T01:17:58;5.57;;;4.90;;
33403;SDS011;19751;40.274;18.268;2023-04-24T01:20:24;6.22;;;5.13;;
33403;SDS011;19751;40.274;18.268;2023-04-24T01:22:51;6.70;;;4.55;;
33403;SDS011;19751;40.274;18.268;2023-04-24T01:25:18;6.10;;;5.47;;
33403;SDS011;19751;40.274;18.268;2023-04-24T01:27:43;6.63;;;5.40;;
33403;SDS011;19751;40.274;18.268;2023-04-24T01:30:09;5.78;;;5.10;;
33403;SDS011;19751;40.274;18.268;2023-04-24T01:32:36;5.82;;;5.18;;
33403;SDS011;19751;40.274;18.268;2023-04-24T01:35:02;6.38;;;5.50;;
33403;SDS011;19751;40.274;18.268;2023-04-24T01:37:28;6.80;;;4.68;;
33403;SDS011;19751;40.274;18.268;2023-04-24T01:39:54;7.90;;;6.05;;
33403;SDS011;19751;40.274;18.268;2023-04-24T01:42:19;6.57;;;5.43;;
33403;SDS011;19751;40.274;18.268;2023-04-24T01:44:45;4.90;;;4.45;;
33403;SDS011;19751;40.274;18.268;2023-04-24T01:47:12;5.25;;;4.65;;
33403;SDS011;19751;40.274;18.268;2023-04-24T01:49:38;7.50;;;4.95;;
33403;SDS011;19751;40.274;18.268;2023-04-24T01:52:04;7.00;;;5.78;;
33403;SDS011;19751;40.274;18.268;2023-04-24T01:54:29;7.07;;;5.03;;
33403;SDS011;19751;40.274;18.268;2023-04-24T01:56:55;5.45;;;4.90;;
33403;SDS011;19751;40.274;18.268;2023-04-24T01:59:21;7.50;;;4.68;;
33403;SDS011;19751;40.274;18.268;2023-04-24T02:01:48;5.30;;;4.53;;
33403;SDS011;19751;40.274;18.268;2023-04-24T02:04:14;5.72;;;4.72;;
33403;SDS011;19751;40.274;18.268;2023-04-24T02:06:40;7.13;;;5.35;;
33403;SDS011;19751;40.274;18.268;2023-04-24T02:09:06;6.38;;;4.82;;
33403;SDS011;19751;40.274;18.268;2023-04-24T02:11:31;5.57;;;5.05;;
33403;SDS011;19751;40.274;18.268;2023-04-24T02:13:57;8.63;;;5.07;;
33403;SDS011;19751;40.274;18.268;2023-04-24T02:16:22;7.95;;;6.00;;
33403;SDS011;19751;40.274;18.268;2023-04-24T02:18:48;14.63;;;6.55;;
33403;SDS011;19751;40.274;18.268;2023-04-24T02:21:13;10.85;;;7.20;;
33403;SDS011;19751;40.274;18.268;2023-04-24T02:23:39;8.05;;;5.65;;
33403;SDS011;19751;40.274;18.268;2023-04-24T02:26:05;7.53;;;5.53;;
33403;SDS011;19751;40.274;18.268;2023-04-24T02:28:30;9.43;;;7.30;;
33403;SDS011;19751;40.274;18.268;2023-04-24T02:30:56;9.02;;;5.03;;
33403;SDS011;19751;40.274;18.268;2023-04-24T02:33:21;9.23;;;5.60;;
33403;SDS011;19751;40.274;18.268;2023-04-24T02:35:47;9.57;;;5.28;;
33403;SDS011;19751;40.274;18.268;2023-04-24T02:38:12;9.80;;;5.85;;
33403;SDS011;19751;40.274;18.268;2023-04-24T02:40:38;7.03;;;5.70;;
33403;SDS011;19751;40.274;18.268;2023-04-24T02:43:03;7.93;;;5.47;;
33403;SDS011;19751;40.274;18.268;2023-04-24T02:45:29;6.90;;;5.32;;
33403;SDS011;19751;40.274;18.268;2023-04-24T02:47:54;8.48;;;5.45;;
33403;SDS011;19751;40.274;18.268;2023-04-24T02:50:20;5.95;;;4.80;;
33403;SDS011;19751;40.274;18.268;2023-04-24T02:52:45;9.82;;;6.30;;
33403;SDS011;19751;40.274;18.268;2023-04-24T02:55:11;7.53;;;4.55;;
33403;SDS011;19751;40.274;18.268;2023-04-24T02:57:36;8.27;;;5.55;;
33403;SDS011;19751;40.274;18.268;2023-04-24T03:00:02;8.52;;;5.45;;
33403;SDS011;19751;40.274;18.268;2023-04-24T03:02:28;13.25;;;5.35;;
33403;SDS011;19751;40.274;18.268;2023-04-24T03:04:53;9.52;;;5.63;;
33403;SDS011;19751;40.274;18.268;2023-04-24T03:07:20;9.48;;;5.50;;
33403;SDS011;19751;40.274;18.268;2023-04-24T03:09:46;10.02;;;5.32;;
33403;SDS011;19751;40.274;18.268;2023-04-24T03:12:12;7.43;;;6.32;;
33403;SDS011;19751;40.274;18.268;2023-04-24T03:14:37;10.30;;;6.53;;
33403;SDS011;19751;40.274;18.268;2023-04-24T03:17:03;10.27;;;5.63;;
33403;SDS011;19751;40.274;18.268;2023-04-24T03:19:29;9.32;;;5.53;;
33403;SDS011;19751;40.274;18.268;2023-04-24T03:21:55;11.82;;;5.78;;
33403;SDS011;19751;40.274;18.268;2023-04-24T03:24:20;7.13;;;6.28;;
33403;SDS011;19751;40.274;18.268;2023-04-24T03:27:00;7.22;;;5.57;;
33403;SDS011;19751;40.274;18.268;2023-04-24T03:29:25;6.88;;;5.43;;
33403;SDS011;19751;40.274;18.268;2023-04-24T03:31:51;7.70;;;5.13;;
33403;SDS011;19751;40.274;18.268;2023-04-24T03:34:16;13.55;;;7.63;;
33403;SDS011;19751;40.274;18.268;2023-04-24T03:36:42;6.75;;;5.10;;
33403;SDS011;19751;40.274;18.268;2023-04-24T03:39:07;6.68;;;5.65;;
33403;SDS011;19751;40.274;18.268;2023-04-24T03:41:33;9.52;;;5.70;;
33403;SDS011;19751;40.274;18.268;2023-04-24T03:43:58;8.60;;;6.03;;
33403;SDS011;19751;40.274;18.268;2023-04-24T03:46:24;11.13;;;5.60;;
33403;SDS011;19751;40.274;18.268;2023-04-24T03:48:49;10.10;;;6.35;;
33403;SDS011;19751;40.274;18.268;2023-04-24T03:51:15;10.68;;;5.68;;
33403;SDS011;19751;40.274;18.268;2023-04-24T03:53:40;11.30;;;5.68;;
33403;SDS011;19751;40.274;18.268;2023-04-24T03:56:06;10.60;;;5.78;;
33403;SDS011;19751;40.274;18.268;2023-04-24T03:58:31;10.68;;;6.00;;
33403;SDS011;19751;40.274;18.268;2023-04-24T04:00:57;12.93;;;6.30;;
33403;SDS011;19751;40.274;18.268;2023-04-24T04:03:23;8.65;;;5.50;;
33403;SDS011;19751;40.274;18.268;2023-04-24T04:05:49;10.93;;;5.45;;
33403;SDS011;19751;40.274;18.268;2023-04-24T04:08:14;9.80;;;6.43;;
33403;SDS011;19751;40.274;18.268;2023-04-24T04:10:40;10.57;;;5.65;;
33403;SDS011;19751;40.274;18.268;2023-04-24T04:13:05;7.47;;;5.90;;
33403;SDS011;19751;40.274;18.268;2023-04-24T04:15:31;15.13;;;5.47;;
33403;SDS011;19751;40.274;18.268;2023-04-24T04:17:57;8.23;;;5.95;;
33403;SDS011;19751;40.274;18.268;2023-04-24T04:20:22;13.60;;;6.35;;
33403;SDS011;19751;40.274;18.268;2023-04-24T04:22:48;11.77;;;6.10;;
33403;SDS011;19751;40.274;18.268;2023-04-24T04:25:13;5.60;;;4.93;;
33403;SDS011;19751;40.274;18.268;2023-04-24T04:27:39;8.38;;;5.50;;
33403;SDS011;19751;40.274;18.268;2023-04-24T04:30:07;7.00;;;4.93;;
33403;SDS011;19751;40.274;18.268;2023-04-24T04:32:34;5.72;;;4.97;;
33403;SDS011;19751;40.274;18.268;2023-04-24T04:35:00;11.63;;;6.25;;
33403;SDS011;19751;40.274;18.268;2023-04-24T04:37:32;11.07;;;6.43;;
33403;SDS011;19751;40.274;18.268;2023-04-24T04:39:58;19.70;;;6.93;;
33403;SDS011;19751;40.274;18.268;2023-04-24T04:42:24;8.32;;;6.78;;
33403;SDS011;19751;40.274;18.268;2023-04-24T04:44:50;12.80;;;6.88;;
33403;SDS011;19751;40.274;18.268;2023-04-24T04:47:16;15.95;;;6.32;;
33403;SDS011;19751;40.274;18.268;2023-04-24T04:49:43;10.85;;;6.50;;
33403;SDS011;19751;40.274;18.268;2023-04-24T04:52:09;11.75;;;6.43;;
33403;SDS011;19751;40.274;18.268;2023-04-24T04:54:35;14.50;;;7.90;;
33403;SDS011;19751;40.274;18.268;2023-04-24T04:57:01;10.00;;;6.25;;
33403;SDS011;19751;40.274;18.268;2023-04-24T04:59:27;14.95;;;6.75;;
33403;SDS011;19751;40.274;18.268;2023-04-24T05:01:52;17.85;;;6.45;;
33403;SDS011;19751;40.274;18.268;2023-04-24T05:04:17;18.27;;;6.57;;
33403;SDS011;19751;40.274;18.268;2023-04-24T05:06:43;10.27;;;6.28;;
33403;SDS011;19751;40.274;18.268;2023-04-24T05:09:09;10.40;;;5.93;;
33403;SDS011;19751;40.274;18.268;2023-04-24T05:11:34;12.63;;;5.57;;
33403;SDS011;19751;40.274;18.268;2023-04-24T05:14:00;13.00;;;5.53;;
33403;SDS011;19751;40.274;18.268;2023-04-24T05:16:26;8.63;;;5.72;;
33403;SDS011;19751;40.274;18.268;2023-04-24T05:18:51;7.50;;;5.32;;
33403;SDS011;19751;40.274;18.268;2023-04-24T05:21:17;11.45;;;5.40;;
33403;SDS011;19751;40.274;18.268;2023-04-24T05:23:42;13.55;;;4.65;;
33403;SDS011;19751;40.274;18.268;2023-04-24T05:26:08;12.05;;;5.95;;
33403;SDS011;19751;40.274;18.268;2023-04-24T05:28:33;12.57;;;6.30;;
33403;SDS011;19751;40.274;18.268;2023-04-24T05:31:01;9.15;;;5.95;;
33403;SDS011;19751;40.274;18.268;2023-04-24T05:33:27;10.68;;;5.72;;
33403;SDS011;19751;40.274;18.268;2023-04-24T05:35:52;11.98;;;6.35;;
33403;SDS011;19751;40.274;18.268;2023-04-24T05:38:18;15.82;;;5.15;;
33403;SDS011;19751;40.274;18.268;2023-04-24T05:40:45;12.38;;;4.97;;
33403;SDS011;19751;40.274;18.268;2023-04-24T05:43:11;8.25;;;5.00;;
33403;SDS011;19751;40.274;18.268;2023-04-24T05:45:37;8.95;;;5.68;;
33403;SDS011;19751;40.274;18.268;2023-04-24T05:48:03;9.40;;;5.47;;
33403;SDS011;19751;40.274;18.268;2023-04-24T05:50:29;12.60;;;5.72;;
33403;SDS011;19751;40.274;18.268;2023-04-24T05:52:55;9.82;;;4.45;;
33403;SDS011;19751;40.274;18.268;2023-04-24T05:55:23;9.32;;;5.53;;
33403;SDS011;19751;40.274;18.268;2023-04-24T05:57:49;8.70;;;4.28;;
33403;SDS011;19751;40.274;18.268;2023-04-24T06:00:15;8.57;;;5.25;;
33403;SDS011;19751;40.274;18.268;2023-04-24T06:02:40;11.70;;;5.10;;
33403;SDS011;19751;40.274;18.268;2023-04-24T06:05:06;10.60;;;5.07;;
33403;SDS011;19751;40.274;18.268;2023-04-24T06:07:33;9.43;;;4.85;;
33403;SDS011;19751;40.274;18.268;2023-04-24T06:09:58;11.75;;;5.15;;
33403;SDS011;19751;40.274;18.268;2023-04-24T06:12:24;11.25;;;4.75;;
33403;SDS011;19751;40.274;18.268;2023-04-24T06:14:50;16.08;;;4.15;;
33403;SDS011;19751;40.274;18.268;2023-04-24T06:17:16;5.55;;;4.47;;
33403;SDS011;19751;40.274;18.268;2023-04-24T06:19:42;18.17;;;5.25;;
33403;SDS011;19751;40.274;18.268;2023-04-24T06:22:07;8.95;;;4.80;;
33403;SDS011;19751;40.274;18.268;2023-04-24T06:24:33;13.23;;;5.10;;
33403;SDS011;19751;40.274;18.268;2023-04-24T06:26:59;11.82;;;4.05;;
33403;SDS011;19751;40.274;18.268;2023-04-24T06:29:26;10.38;;;4.57;;
33403;SDS011;19751;40.274;18.268;2023-04-24T06:31:52;11.63;;;4.75;;
33403;SDS011;19751;40.274;18.268;2023-04-24T06:34:17;8.80;;;4.03;;
33403;SDS011;19751;40.274;18.268;2023-04-24T06:36:43;7.72;;;4.38;;
33403;SDS011;19751;40.274;18.268;2023-04-24T06:39:09;9.10;;;5.13;;
33403;SDS011;19751;40.274;18.268;2023-04-24T06:41:34;10.75;;;3.88;;
33403;SDS011;19751;40.274;18.268;2023-04-24T06:44:00;6.65;;;3.78;;
33403;SDS011;19751;40.274;18.268;2023-04-24T06:46:26;8.35;;;3.25;;
33403;SDS011;19751;40.274;18.268;2023-04-24T06:48:53;8.98;;;3.88;;
33403;SDS011;19751;40.274;18.268;2023-04-24T06:51:25;6.80;;;3.38;;
33403;SDS011;19751;40.274;18.268;2023-04-24T06:53:52;7.95;;;3.92;;
33403;SDS011;19751;40.274;18.268;2023-04-24T06:56:18;10.52;;;3.67;;
33403;SDS011;19751;40.274;18.268;2023-04-24T06:58:45;14.30;;;3.95;;
33403;SDS011;19751;40.274;18.268;2023-04-24T07:01:11;8.02;;;3.78;;
33403;SDS011;19751;40.274;18.268;2023-04-24T07:03:36;9.02;;;4.00;;
33403;SDS011;19751;40.274;18.268;2023-04-24T07:06:02;11.00;;;4.18;;
33403;SDS011;19751;40.274;18.268;2023-04-24T07:08:28;11.40;;;5.18;;
33403;SDS011;19751;40.274;18.268;2023-04-24T07:10:55;13.05;;;4.75;;
33403;SDS011;19751;40.274;18.268;2023-04-24T07:13:21;8.60;;;3.67;;
33403;SDS011;19751;40.274;18.268;2023-04-24T07:15:47;11.02;;;4.55;;
33403;SDS011;19751;40.274;18.268;2023-04-24T07:18:15;7.60;;;3.97;;
33403;SDS011;19751;40.274;18.268;2023-04-24T07:20:42;11.20;;;5.13;;
33403;SDS011;19751;40.274;18.268;2023-04-24T07:23:07;8.35;;;4.57;;
33403;SDS011;19751;40.274;18.268;2023-04-24T07:25:33;7.10;;;3.75;;
33403;SDS011;19751;40.274;18.268;2023-04-24T07:27:59;10.00;;;4.20;;
33403;SDS011;19751;40.274;18.268;2023-04-24T07:30:24;8.38;;;4.18;;
33403;SDS011;19751;40.274;18.268;2023-04-24T07:32:50;10.77;;;4.07;;
33403;SDS011;19751;40.274;18.268;2023-04-24T07:35:15;9.00;;;4.30;;
33403;SDS011;19751;40.274;18.268;2023-04-24T07:37:41;3.47;;;2.88;;
33403;SDS011;19751;40.274;18.268;2023-04-24T07:40:11;8.45;;;4.50;;
33403;SDS011;19751;40.274;18.268;2023-04-24T07:42:37;8.43;;;4.13;;
33403;SDS011;19751;40.274;18.268;2023-04-24T07:45:03;12.80;;;4.57;;
33403;SDS011;19751;40.274;18.268;2023-04-24T07:47:29;9.38;;;4.25;;
33403;SDS011;19751;40.274;18.268;2023-04-24T07:49:55;7.10;;;3.90;;
33403;SDS011;19751;40.274;18.268;2023-04-24T07:52:21;12.18;;;4.50;;
33403;SDS011;19751;40.274;18.268;2023-04-24T07:54:46;10.82;;;4.35;;
33403;SDS011;19751;40.274;18.268;2023-04-24T07:57:12;8.80;;;4.10;;
33403;SDS011;19751;40.274;18.268;2023-04-24T07:59:38;8.20;;;3.92;;
33403;SDS011;19751;40.274;18.268;2023-04-24T08:02:04;10.93;;;4.38;;
33403;SDS011;19751;40.274;18.268;2023-04-24T08:04:31;9.20;;;4.22;;
33403;SDS011;19751;40.274;18.268;2023-04-24T08:06:56;8.95;;;4.40;;
33403;SDS011;19751;40.274;18.268;2023-04-24T08:09:22;9.40;;;4.32;;
33403;SDS011;19751;40.274;18.268;2023-04-24T08:11:47;13.63;;;4.72;;
33403;SDS011;19751;40.274;18.268;2023-04-24T08:14:13;8.85;;;3.33;;
33403;SDS011;19751;40.274;18.268;2023-04-24T08:16:40;9.70;;;3.42;;
33403;SDS011;19751;40.274;18.268;2023-04-24T08:19:05;18.30;;;8.50;;
33403;SDS011;19751;40.274;18.268;2023-04-24T08:21:31;9.45;;;4.63;;
33403;SDS011;19751;40.274;18.268;2023-04-24T08:23:57;8.50;;;3.60;;
33403;SDS011;19751;40.274;18.268;2023-04-24T08:26:22;8.77;;;4.20;;
33403;SDS011;19751;40.274;18.268;2023-04-24T08:28:48;5.82;;;4.18;;
33403;SDS011;19751;40.274;18.268;2023-04-24T08:31:13;8.15;;;4.03;;
33403;SDS011;19751;40.274;18.268;2023-04-24T08:33:39;5.80;;;4.10;;
33403;SDS011;19751;40.274;18.268;2023-04-24T08:36:06;23.23;;;4.18;;
33403;SDS011;19751;40.274;18.268;2023-04-24T08:38:33;10.00;;;3.85;;
33403;SDS011;19751;40.274;18.268;2023-04-24T08:40:59;8.00;;;4.60;;
33403;SDS011;19751;40.274;18.268;2023-04-24T08:43:26;7.10;;;3.95;;
33403;SDS011;19751;40.274;18.268;2023-04-24T08:45:53;8.88;;;4.80;;
33403;SDS011;19751;40.274;18.268;2023-04-24T08:48:21;8.68;;;4.03;;
33403;SDS011;19751;40.274;18.268;2023-04-24T08:50:48;8.10;;;3.25;;
33403;SDS011;19751;40.274;18.268;2023-04-24T08:53:15;9.27;;;4.00;;
33403;SDS011;19751;40.274;18.268;2023-04-24T08:55:43;10.18;;;4.22;;
33403;SDS011;19751;40.274;18.268;2023-04-24T08:58:11;9.02;;;4.18;;
33403;SDS011;19751;40.274;18.268;2023-04-24T09:00:38;8.27;;;3.58;;
33403;SDS011;19751;40.274;18.268;2023-04-24T09:03:05;7.13;;;4.13;;
33403;SDS011;19751;40.274;18.268;2023-04-24T09:05:31;8.85;;;4.25;;
33403;SDS011;19751;40.274;18.268;2023-04-24T09:07:57;10.93;;;3.60;;
33403;SDS011;19751;40.274;18.268;2023-04-24T09:10:27;11.63;;;4.15;;
33403;SDS011;19751;40.274;18.268;2023-04-24T09:12:55;20.52;;;5.07;;
33403;SDS011;19751;40.274;18.268;2023-04-24T09:15:23;9.93;;;4.07;;
33403;SDS011;19751;40.274;18.268;2023-04-24T09:17:49;11.48;;;4.35;;
33403;SDS011;19751;40.274;18.268;2023-04-24T09:20:15;6.90;;;4.47;;
33403;SDS011;19751;40.274;18.268;2023-04-24T09:22:41;9.07;;;4.63;;
33403;SDS011;19751;40.274;18.268;2023-04-24T09:25:08;7.43;;;4.07;;
33403;SDS011;19751;40.274;18.268;2023-04-24T09:27:36;8.38;;;4.82;;
33403;SDS011;19751;40.274;18.268;2023-04-24T09:30:07;11.48;;;5.90;;
33403;SDS011;19751;40.274;18.268;2023-04-24T09:32:33;11.15;;;4.22;;
33403;SDS011;19751;40.274;18.268;2023-04-24T09:35:06;6.07;;;3.40;;
33403;SDS011;19751;40.274;18.268;2023-04-24T09:37:35;9.70;;;3.40;;
33403;SDS011;19751;40.274;18.268;2023-04-24T09:40:12;8.52;;;4.05;;
33403;SDS011;19751;40.274;18.268;2023-04-24T09:42:55;7.25;;;3.72;;
33403;SDS011;19751;40.274;18.268;2023-04-24T09:45:28;8.20;;;3.60;;
33403;SDS011;19751;40.274;18.268;2023-04-24T09:47:59;5.60;;;3.22;;
33403;SDS011;19751;40.274;18.268;2023-04-24T09:50:25;14.68;;;4.45;;
33403;SDS011;19751;40.274;18.268;2023-04-24T09:53:24;13.30;;;4.07;;
33403;SDS011;19751;40.274;18.268;2023-04-24T09:55:48;10.50;;;4.18;;
33403;SDS011;19751;40.274;18.268;2023-04-24T09:58:15;9.52;;;3.97;;
33403;SDS011;19751;40.274;18.268;2023-04-24T10:00:40;12.52;;;3.60;;
33403;SDS011;19751;40.274;18.268;2023-04-24T10:03:06;7.10;;;3.60;;
33403;SDS011;19751;40.274;18.268;2023-04-24T10:05:33;6.53;;;3.50;;
33403;SDS011;19751;40.274;18.268;2023-04-24T10:08:10;11.25;;;3.55;;
33403;SDS011;19751;40.274;18.268;2023-04-24T10:10:40;8.15;;;3.92;;
33403;SDS011;19751;40.274;18.268;2023-04-24T10:13:08;10.80;;;3.53;;
33403;SDS011;19751;40.274;18.268;2023-04-24T10:15:35;6.70;;;3.33;;
33403;SDS011;19751;40.274;18.268;2023-04-24T10:18:02;10.20;;;3.80;;
33403;SDS011;19751;40.274;18.268;2023-04-24T10:20:31;12.90;;;3.35;;
33403;SDS011;19751;40.274;18.268;2023-04-24T10:22:58;10.90;;;3.30;;
33403;SDS011;19751;40.274;18.268;2023-04-24T10:25:25;6.90;;;2.85;;
33403;SDS011;19751;40.274;18.268;2023-04-24T10:27:53;9.55;;;5.65;;
33403;SDS011;19751;40.274;18.268;2023-04-24T10:30:22;6.80;;;2.83;;
33403;SDS011;19751;40.274;18.268;2023-04-24T10:32:48;7.20;;;3.10;;
33403;SDS011;19751;40.274;18.268;2023-04-24T10:35:17;10.77;;;3.15;;
33403;SDS011;19751;40.274;18.268;2023-04-24T10:38:05;6.82;;;3.38;;
33403;SDS011;19751;40.274;18.268;2023-04-24T10:40:34;14.93;;;3.60;;
33403;SDS011;19751;40.274;18.268;2023-04-24T10:43:07;8.32;;;3.70;;
33403;SDS011;19751;40.274;18.268;2023-04-24T10:45:35;10.93;;;4.45;;
33403;SDS011;19751;40.274;18.268;2023-04-24T10:48:05;6.50;;;3.38;;
33403;SDS011;19751;40.274;18.268;2023-04-24T10:50:43;9.00;;;4.00;;
33403;SDS011;19751;40.274;18.268;2023-04-24T10:53:17;5.72;;;3.15;;
33403;SDS011;19751;40.274;18.268;2023-04-24T10:58:13;6.53;;;3.13;;
33403;SDS011;19751;40.274;18.268;2023-04-24T11:00:41;13.85;;;4.05;;
33403;SDS011;19751;40.274;18.268;2023-04-24T11:03:32;8.27;;;3.85;;
33403;SDS011;19751;40.274;18.268;2023-04-24T11:06:00;6.03;;;3.28;;
33403;SDS011;19751;40.274;18.268;2023-04-24T11:21:32;14.50;;;4.43;;
33403;SDS011;19751;40.274;18.268;2023-04-24T11:26:50;11.18;;;4.10;;
33403;SDS011;19751;40.274;18.268;2023-04-24T11:29:17;12.77;;;3.72;;
33403;SDS011;19751;40.274;18.268;2023-04-24T11:31:45;7.72;;;3.25;;
33403;SDS011;19751;40.274;18.268;2023-04-24T11:34:16;7.13;;;3.92;;
33403;SDS011;19751;40.274;18.268;2023-04-24T11:36:43;8.63;;;4.13;;
33403;SDS011;19751;40.274;18.268;2023-04-24T11:39:10;9.02;;;4.82;;
33403;SDS011;19751;40.274;18.268;2023-04-24T11:41:36;10.73;;;4.22;;
33403;SDS011;19751;40.274;18.268;2023-04-24T11:44:02;14.05;;;4.63;;
33403;SDS011;19751;40.274;18.268;2023-04-24T11:46:30;9.77;;;4.05;;
33403;SDS011;19751;40.274;18.268;2023-04-24T11:48:57;13.90;;;4.13;;
33403;SDS011;19751;40.274;18.268;2023-04-24T11:51:23;12.55;;;3.75;;
33403;SDS011;19751;40.274;18.268;2023-04-24T11:53:53;12.52;;;4.18;;
33403;SDS011;19751;40.274;18.268;2023-04-24T11:56:23;10.93;;;3.95;;
33403;SDS011;19751;40.274;18.268;2023-04-24T11:58:51;8.93;;;3.85;;
33403;SDS011;19751;40.274;18.268;2023-04-24T12:01:19;15.77;;;4.30;;
33403;SDS011;19751;40.274;18.268;2023-04-24T12:03:48;13.20;;;4.50;;
33403;SDS011;19751;40.274;18.268;2023-04-24T12:06:15;10.05;;;3.85;;
33403;SDS011;19751;40.274;18.268;2023-04-24T12:08:41;8.10;;;3.80;;
33403;SDS011;19751;40.274;18.268;2023-04-24T12:11:11;7.90;;;3.80;;
33403;SDS011;19751;40.274;18.268;2023-04-24T12:13:40;10.48;;;3.83;;
33403;SDS011;19751;40.274;18.268;2023-04-24T12:16:05;6.93;;;3.83;;
33403;SDS011;19751;40.274;18.268;2023-04-24T12:18:31;11.07;;;4.47;;
33403;SDS011;19751;40.274;18.268;2023-04-24T12:21:14;10.48;;;3.58;;
33403;SDS011;19751;40.274;18.268;2023-04-24T12:23:43;10.60;;;4.00;;
33403;SDS011;19751;40.274;18.268;2023-04-24T12:26:10;6.20;;;3.60;;
33403;SDS011;19751;40.274;18.268;2023-04-24T12:28:37;8.57;;;3.80;;
33403;SDS011;19751;40.274;18.268;2023-04-24T12:31:04;11.60;;;4.00;;
33403;SDS011;19751;40.274;18.268;2023-04-24T12:33:35;12.77;;;4.20;;
33403;SDS011;19751;40.274;18.268;2023-04-24T12:36:01;19.00;;;4.53;;
33403;SDS011;19751;40.274;18.268;2023-04-24T12:38:27;10.93;;;4.97;;
33403;SDS011;19751;40.274;18.268;2023-04-24T12:41:08;10.95;;;4.30;;
33403;SDS011;19751;40.274;18.268;2023-04-24T12:43:35;11.60;;;3.85;;
33403;SDS011;19751;40.274;18.268;2023-04-24T12:46:01;18.73;;;8.30;;
33403;SDS011;19751;40.274;18.268;2023-04-24T12:48:27;8.30;;;4.20;;
33403;SDS011;19751;40.274;18.268;2023-04-24T12:50:53;8.23;;;3.90;;
33403;SDS011;19751;40.274;18.268;2023-04-24T12:53:18;14.18;;;4.43;;
33403;SDS011;19751;40.274;18.268;2023-04-24T12:55:44;12.32;;;4.28;;
33403;SDS011;19751;40.274;18.268;2023-04-24T12:58:10;10.10;;;3.97;;
33403;SDS011;19751;40.274;18.268;2023-04-24T13:00:35;10.95;;;3.58;;
33403;SDS011;19751;40.274;18.268;2023-04-24T13:03:02;15.43;;;4.57;;
33403;SDS011;19751;40.274;18.268;2023-04-24T13:05:28;10.43;;;3.75;;
33403;SDS011;19751;40.274;18.268;2023-04-24T13:07:53;12.75;;;3.67;;
33403;SDS011;19751;40.274;18.268;2023-04-24T13:10:19;9.50;;;4.47;;
33403;SDS011;19751;40.274;18.268;2023-04-24T13:12:45;7.20;;;4.40;;
33403;SDS011;19751;40.274;18.268;2023-04-24T13:15:11;12.75;;;4.03;;
33403;SDS011;19751;40.274;18.268;2023-04-24T13:17:37;12.45;;;5.53;;
33403;SDS011;19751;40.274;18.268;2023-04-24T13:20:03;20.65;;;7.47;;
33403;SDS011;19751;40.274;18.268;2023-04-24T13:22:28;13.95;;;5.03;;
33403;SDS011;19751;40.274;18.268;2023-04-24T13:24:54;12.82;;;4.65;;
33403;SDS011;19751;40.274;18.268;2023-04-24T13:27:21;10.80;;;4.10;;
33403;SDS011;19751;40.274;18.268;2023-04-24T13:29:46;13.32;;;6.20;;
33403;SDS011;19751;40.274;18.268;2023-04-24T13:32:12;10.27;;;4.05;;
33403;SDS011;19751;40.274;18.268;2023-04-24T13:34:37;8.32;;;3.60;;
33403;SDS011;19751;40.274;18.268;2023-04-24T13:37:03;20.48;;;5.30;;
33403;SDS011;19751;40.274;18.268;2023-04-24T13:39:29;4.95;;;4.10;;
33403;SDS011;19751;40.274;18.268;2023-04-24T13:41:55;9.88;;;4.40;;
33403;SDS011;19751;40.274;18.268;2023-04-24T13:44:21;14.30;;;4.32;;
33403;SDS011;19751;40.274;18.268;2023-04-24T13:46:49;13.57;;;5.45;;
33403;SDS011;19751;40.274;18.268;2023-04-24T13:49:17;12.02;;;5.18;;
33403;SDS011;19751;40.274;18.268;2023-04-24T13:51:44;10.00;;;5.38;;
33403;SDS011;19751;40.274;18.268;2023-04-24T13:54:10;8.85;;;5.28;;
33403;SDS011;19751;40.274;18.268;2023-04-24T13:56:38;15.27;;;4.57;;
33403;SDS011;19751;40.274;18.268;2023-04-24T13:59:04;10.50;;;4.45;;
33403;SDS011;19751;40.274;18.268;2023-04-24T14:01:30;14.65;;;4.45;;
33403;SDS011;19751;40.274;18.268;2023-04-24T14:03:56;10.10;;;4.32;;
33403;SDS011;19751;40.274;18.268;2023-04-24T14:06:22;7.13;;;4.10;;
33403;SDS011;19751;40.274;18.268;2023-04-24T14:08:48;12.20;;;4.13;;
33403;SDS011;19751;40.274;18.268;2023-04-24T14:11:15;13.80;;;4.20;;
33403;SDS011;19751;40.274;18.268;2023-04-24T14:13:41;9.13;;;3.40;;
33403;SDS011;19751;40.274;18.268;2023-04-24T14:16:07;11.00;;;4.13;;
33403;SDS011;19751;40.274;18.268;2023-04-24T14:18:33;14.10;;;4.10;;
33403;SDS011;19751;40.274;18.268;2023-04-24T14:20:59;9.25;;;3.97;;
33403;SDS011;19751;40.274;18.268;2023-04-24T14:23:26;10.55;;;5.32;;
33403;SDS011;19751;40.274;18.268;2023-04-24T14:25:51;13.88;;;4.35;;
33403;SDS011;19751;40.274;18.268;2023-04-24T14:28:18;8.82;;;4.03;;
33403;SDS011;19751;40.274;18.268;2023-04-24T14:30:45;6.65;;;3.67;;
33403;SDS011;19751;40.274;18.268;2023-04-24T14:33:11;6.20;;;3.17;;
33403;SDS011;19751;40.274;18.268;2023-04-24T14:35:37;12.40;;;4.57;;
33403;SDS011;19751;40.274;18.268;2023-04-24T14:38:03;12.70;;;5.00;;
33403;SDS011;19751;40.274;18.268;2023-04-24T14:40:29;14.32;;;4.50;;
33403;SDS011;19751;40.274;18.268;2023-04-24T14:42:56;7.38;;;3.28;;
33403;SDS011;19751;40.274;18.268;2023-04-24T14:45:23;7.43;;;2.80;;